sensor_id;sensor_type;location;lat;lon;timestamp;P1;durP1;ratioP1;P2;durP2;ratioP2
33926;SDS011;20485;50.992;5.550;2023-02-28T00:00:12;9.65;;;5.72;;
33926;SDS011;20485;50.992;5.550;2023-02-28T00:02:40;9.15;;;5.35;;
33926;SDS011;20485;50.992;5.550;2023-02-28T00:05:07;11.25;;;5.28;;
33926;SDS011;20485;50.992;5.550;2023-02-28T00:07:34;11.15;;;5.43;;
33926;SDS011;20485;50.992;5.550;2023-02-28T00:10:00;17.40;;;6.28;;
33926;SDS011;20485;50.992;5.550;2023-02-28T00:12:26;14.73;;;5.55;;
33926;SDS011;20485;50.992;5.550;2023-02-28T00:14:52;9.70;;;5.55;;
33926;SDS011;20485;50.992;5.550;2023-02-28T00:17:18;16.15;;;5.82;;
33926;SDS011;20485;50.992;5.550;2023-02-28T00:19:46;11.75;;;5.68;;
33926;SDS011;20485;50.992;5.550;2023-02-28T00:22:13;12.00;;;4.95;;
33926;SDS011;20485;50.992;5.550;2023-02-28T00:24:40;10.07;;;5.65;;
33926;SDS011;20485;50.992;5.550;2023-02-28T00:27:05;11.27;;;5.22;;
33926;SDS011;20485;50.992;5.550;2023-02-28T00:29:31;11.10;;;5.55;;
33926;SDS011;20485;50.992;5.550;2023-02-28T00:31:57;12.32;;;5.60;;
33926;SDS011;20485;50.992;5.550;2023-02-28T00:34:22;13.70;;;6.55;;
33926;SDS011;20485;50.992;5.550;2023-02-28T00:36:48;7.70;;;5.07;;
33926;SDS011;20485;50.992;5.550;2023-02-28T00:39:14;14.77;;;5.45;;
33926;SDS011;20485;50.992;5.550;2023-02-28T00:41:41;15.25;;;5.97;;
33926;SDS011;20485;50.992;5.550;2023-02-28T00:44:07;15.13;;;5.82;;
33926;SDS011;20485;50.992;5.550;2023-02-28T00:46:32;10.55;;;5.68;;
33926;SDS011;20485;50.992;5.550;2023-02-28T00:48:58;12.18;;;6.32;;
33926;SDS011;20485;50.992;5.550;2023-02-28T00:51:23;14.00;;;6.15;;
33926;SDS011;20485;50.992;5.550;2023-02-28T00:53:49;16.17;;;6.60;;
33926;SDS011;20485;50.992;5.550;2023-02-28T00:56:15;10.82;;;5.78;;
33926;SDS011;20485;50.992;5.550;2023-02-28T00:58:41;10.00;;;6.22;;
33926;SDS011;20485;50.992;5.550;2023-02-28T01:01:06;12.15;;;6.32;;
33926;SDS011;20485;50.992;5.550;2023-02-28T01:03:32;9.82;;;6.53;;
33926;SDS011;20485;50.992;5.550;2023-02-28T01:05:58;12.13;;;5.85;;
33926;SDS011;20485;50.992;5.550;2023-02-28T01:08:24;15.13;;;6.25;;
33926;SDS011;20485;50.992;5.550;2023-02-28T01:10:51;12.98;;;6.07;;
33926;SDS011;20485;50.992;5.550;2023-02-28T01:13:17;10.32;;;5.88;;
33926;SDS011;20485;50.992;5.550;2023-02-28T01:15:45;9.55;;;5.85;;
33926;SDS011;20485;50.992;5.550;2023-02-28T01:18:14;10.95;;;6.30;;
33926;SDS011;20485;50.992;5.550;2023-02-28T01:20:40;13.13;;;6.03;;
33926;SDS011;20485;50.992;5.550;2023-02-28T01:23:05;10.98;;;5.85;;
33926;SDS011;20485;50.992;5.550;2023-02-28T01:25:33;11.82;;;6.40;;
33926;SDS011;20485;50.992;5.550;2023-02-28T01:28:00;9.05;;;5.85;;
33926;SDS011;20485;50.992;5.550;2023-02-28T01:30:25;18.25;;;6.80;;
33926;SDS011;20485;50.992;5.550;2023-02-28T01:32:51;11.35;;;6.05;;
33926;SDS011;20485;50.992;5.550;2023-02-28T01:35:18;12.77;;;6.40;;
33926;SDS011;20485;50.992;5.550;2023-02-28T01:37:44;12.98;;;7.35;;
33926;SDS011;20485;50.992;5.550;2023-02-28T01:40:10;13.90;;;7.03;;
33926;SDS011;20485;50.992;5.550;2023-02-28T01:42:37;13.35;;;7.00;;
33926;SDS011;20485;50.992;5.550;2023-02-28T01:48:04;10.88;;;6.53;;
33926;SDS011;20485;50.992;5.550;2023-02-28T01:50:34;15.80;;;7.22;;
33926;SDS011;20485;50.992;5.550;2023-02-28T01:53:04;15.98;;;7.05;;
33926;SDS011;20485;50.992;5.550;2023-02-28T01:55:34;12.80;;;7.18;;
33926;SDS011;20485;50.992;5.550;2023-02-28T01:58:02;12.50;;;6.38;;
33926;SDS011;20485;50.992;5.550;2023-02-28T02:00:29;12.13;;;6.95;;
33926;SDS011;20485;50.992;5.550;2023-02-28T02:02:59;18.23;;;6.47;;
33926;SDS011;20485;50.992;5.550;2023-02-28T02:05:31;12.05;;;6.72;;
33926;SDS011;20485;50.992;5.550;2023-02-28T02:08:02;12.48;;;7.30;;
33926;SDS011;20485;50.992;5.550;2023-02-28T02:10:42;11.55;;;6.32;;
33926;SDS011;20485;50.992;5.550;2023-02-28T02:13:27;15.85;;;7.00;;
33926;SDS011;20485;50.992;5.550;2023-02-28T02:38:38;12.55;;;7.30;;
33926;SDS011;20485;50.992;5.550;2023-02-28T02:44:01;13.23;;;7.75;;
33926;SDS011;20485;50.992;5.550;2023-02-28T02:46:34;18.17;;;7.35;;
33926;SDS011;20485;50.992;5.550;2023-02-28T02:49:06;13.48;;;7.10;;
33926;SDS011;20485;50.992;5.550;2023-02-28T02:51:47;12.63;;;6.60;;
33926;SDS011;20485;50.992;5.550;2023-02-28T02:54:17;14.50;;;7.20;;
33926;SDS011;20485;50.992;5.550;2023-02-28T02:56:48;12.07;;;6.70;;
33926;SDS011;20485;50.992;5.550;2023-02-28T02:59:16;17.65;;;8.15;;
33926;SDS011;20485;50.992;5.550;2023-02-28T03:01:48;14.32;;;7.55;;
33926;SDS011;20485;50.992;5.550;2023-02-28T03:04:19;14.65;;;7.40;;
33926;SDS011;20485;50.992;5.550;2023-02-28T03:06:47;14.48;;;8.10;;
33926;SDS011;20485;50.992;5.550;2023-02-28T03:09:15;21.58;;;8.25;;
33926;SDS011;20485;50.992;5.550;2023-02-28T03:11:41;14.48;;;7.90;;
33926;SDS011;20485;50.992;5.550;2023-02-28T03:14:14;15.15;;;8.05;;
33926;SDS011;20485;50.992;5.550;2023-02-28T03:25:21;15.23;;;8.38;;
33926;SDS011;20485;50.992;5.550;2023-02-28T03:28:01;22.92;;;8.60;;
33926;SDS011;20485;50.992;5.550;2023-02-28T03:33:16;17.52;;;9.05;;
33926;SDS011;20485;50.992;5.550;2023-02-28T03:36:08;15.68;;;8.88;;
33926;SDS011;20485;50.992;5.550;2023-02-28T03:38:41;15.32;;;8.82;;
33926;SDS011;20485;50.992;5.550;2023-02-28T03:41:13;20.92;;;9.38;;
33926;SDS011;20485;50.992;5.550;2023-02-28T03:43:55;19.85;;;8.93;;
33926;SDS011;20485;50.992;5.550;2023-02-28T03:46:40;12.02;;;7.50;;
33926;SDS011;20485;50.992;5.550;2023-02-28T03:51:42;13.85;;;8.10;;
33926;SDS011;20485;50.992;5.550;2023-02-28T03:54:12;14.45;;;7.88;;
33926;SDS011;20485;50.992;5.550;2023-02-28T03:56:56;16.80;;;8.43;;
33926;SDS011;20485;50.992;5.550;2023-02-28T04:02:24;12.15;;;6.60;;
33926;SDS011;20485;50.992;5.550;2023-02-28T04:04:49;13.25;;;7.65;;
33926;SDS011;20485;50.992;5.550;2023-02-28T04:07:16;14.52;;;7.95;;
33926;SDS011;20485;50.992;5.550;2023-02-28T04:09:46;15.65;;;7.70;;
33926;SDS011;20485;50.992;5.550;2023-02-28T04:12:13;13.48;;;7.55;;
33926;SDS011;20485;50.992;5.550;2023-02-28T04:14:39;14.82;;;7.28;;
33926;SDS011;20485;50.992;5.550;2023-02-28T04:17:04;12.98;;;7.63;;
33926;SDS011;20485;50.992;5.550;2023-02-28T04:19:30;15.07;;;7.32;;
33926;SDS011;20485;50.992;5.550;2023-02-28T04:21:56;16.90;;;8.25;;
33926;SDS011;20485;50.992;5.550;2023-02-28T04:24:23;15.43;;;7.85;;
33926;SDS011;20485;50.992;5.550;2023-02-28T04:26:52;16.10;;;7.15;;
33926;SDS011;20485;50.992;5.550;2023-02-28T04:29:27;13.88;;;7.57;;
33926;SDS011;20485;50.992;5.550;2023-02-28T04:31:54;17.73;;;8.35;;
33926;SDS011;20485;50.992;5.550;2023-02-28T04:34:24;12.63;;;7.65;;
33926;SDS011;20485;50.992;5.550;2023-02-28T04:36:50;17.92;;;8.35;;
33926;SDS011;20485;50.992;5.550;2023-02-28T04:39:19;14.23;;;7.95;;
33926;SDS011;20485;50.992;5.550;2023-02-28T04:41:45;17.63;;;8.50;;
33926;SDS011;20485;50.992;5.550;2023-02-28T04:44:12;18.90;;;8.57;;
33926;SDS011;20485;50.992;5.550;2023-02-28T04:46:38;17.90;;;8.40;;
33926;SDS011;20485;50.992;5.550;2023-02-28T04:49:03;16.98;;;8.45;;
33926;SDS011;20485;50.992;5.550;2023-02-28T04:51:29;13.48;;;8.10;;
33926;SDS011;20485;50.992;5.550;2023-02-28T04:53:55;13.23;;;7.82;;
33926;SDS011;20485;50.992;5.550;2023-02-28T04:56:21;13.07;;;8.23;;
33926;SDS011;20485;50.992;5.550;2023-02-28T04:58:47;16.92;;;7.53;;
33926;SDS011;20485;50.992;5.550;2023-02-28T05:03:53;14.27;;;7.32;;
33926;SDS011;20485;50.992;5.550;2023-02-28T05:06:21;12.00;;;7.07;;
33926;SDS011;20485;50.992;5.550;2023-02-28T05:08:51;14.90;;;7.95;;
33926;SDS011;20485;50.992;5.550;2023-02-28T05:11:21;17.90;;;8.05;;
33926;SDS011;20485;50.992;5.550;2023-02-28T05:13:50;17.83;;;9.00;;
33926;SDS011;20485;50.992;5.550;2023-02-28T05:16:17;17.15;;;8.68;;
33926;SDS011;20485;50.992;5.550;2023-02-28T05:18:43;23.92;;;8.60;;
33926;SDS011;20485;50.992;5.550;2023-02-28T05:24:00;19.63;;;8.45;;
33926;SDS011;20485;50.992;5.550;2023-02-28T05:26:28;20.23;;;8.57;;
33926;SDS011;20485;50.992;5.550;2023-02-28T05:28:54;20.55;;;8.90;;
33926;SDS011;20485;50.992;5.550;2023-02-28T05:31:21;19.90;;;8.88;;
33926;SDS011;20485;50.992;5.550;2023-02-28T05:33:47;16.17;;;8.93;;
33926;SDS011;20485;50.992;5.550;2023-02-28T05:36:13;18.77;;;9.27;;
33926;SDS011;20485;50.992;5.550;2023-02-28T05:38:39;18.50;;;9.25;;
33926;SDS011;20485;50.992;5.550;2023-02-28T05:41:08;26.40;;;9.30;;
33926;SDS011;20485;50.992;5.550;2023-02-28T05:43:35;18.92;;;9.80;;
33926;SDS011;20485;50.992;5.550;2023-02-28T05:46:05;19.23;;;9.55;;
33926;SDS011;20485;50.992;5.550;2023-02-28T05:48:36;15.75;;;8.93;;
33926;SDS011;20485;50.992;5.550;2023-02-28T05:51:03;18.55;;;9.35;;
33926;SDS011;20485;50.992;5.550;2023-02-28T05:53:30;20.73;;;9.23;;
33926;SDS011;20485;50.992;5.550;2023-02-28T05:55:56;17.45;;;9.43;;
33926;SDS011;20485;50.992;5.550;2023-02-28T05:58:22;19.88;;;9.07;;
33926;SDS011;20485;50.992;5.550;2023-02-28T06:00:50;16.83;;;9.10;;
33926;SDS011;20485;50.992;5.550;2023-02-28T06:03:16;19.48;;;8.50;;
33926;SDS011;20485;50.992;5.550;2023-02-28T06:05:41;19.45;;;10.02;;
33926;SDS011;20485;50.992;5.550;2023-02-28T06:08:07;16.23;;;9.68;;
33926;SDS011;20485;50.992;5.550;2023-02-28T06:10:33;27.27;;;9.63;;
33926;SDS011;20485;50.992;5.550;2023-02-28T06:13:00;21.02;;;9.25;;
33926;SDS011;20485;50.992;5.550;2023-02-28T06:15:30;18.30;;;9.52;;
33926;SDS011;20485;50.992;5.550;2023-02-28T06:17:56;23.17;;;9.10;;
33926;SDS011;20485;50.992;5.550;2023-02-28T06:20:22;18.70;;;8.73;;
33926;SDS011;20485;50.992;5.550;2023-02-28T06:22:49;18.52;;;8.27;;
33926;SDS011;20485;50.992;5.550;2023-02-28T06:25:21;15.32;;;8.77;;
33926;SDS011;20485;50.992;5.550;2023-02-28T06:27:46;16.38;;;8.05;;
33926;SDS011;20485;50.992;5.550;2023-02-28T06:30:13;14.57;;;8.45;;
33926;SDS011;20485;50.992;5.550;2023-02-28T06:32:39;18.55;;;8.35;;
33926;SDS011;20485;50.992;5.550;2023-02-28T06:35:05;14.23;;;7.88;;
33926;SDS011;20485;50.992;5.550;2023-02-28T06:37:31;13.50;;;7.70;;
33926;SDS011;20485;50.992;5.550;2023-02-28T06:39:57;20.05;;;8.30;;
33926;SDS011;20485;50.992;5.550;2023-02-28T06:42:23;15.77;;;8.13;;
33926;SDS011;20485;50.992;5.550;2023-02-28T06:44:53;17.60;;;8.35;;
33926;SDS011;20485;50.992;5.550;2023-02-28T06:47:20;12.60;;;7.45;;
33926;SDS011;20485;50.992;5.550;2023-02-28T06:49:45;14.95;;;7.38;;
33926;SDS011;20485;50.992;5.550;2023-02-28T06:52:12;18.73;;;8.00;;
33926;SDS011;20485;50.992;5.550;2023-02-28T06:54:37;12.18;;;6.72;;
33926;SDS011;20485;50.992;5.550;2023-02-28T06:57:03;18.60;;;8.25;;
33926;SDS011;20485;50.992;5.550;2023-02-28T06:59:29;16.20;;;8.15;;
33926;SDS011;20485;50.992;5.550;2023-02-28T07:01:55;15.80;;;7.65;;
33926;SDS011;20485;50.992;5.550;2023-02-28T07:04:21;16.70;;;7.70;;
33926;SDS011;20485;50.992;5.550;2023-02-28T07:06:47;14.85;;;7.78;;
33926;SDS011;20485;50.992;5.550;2023-02-28T07:09:13;16.00;;;7.82;;
33926;SDS011;20485;50.992;5.550;2023-02-28T07:11:38;15.35;;;8.35;;
33926;SDS011;20485;50.992;5.550;2023-02-28T07:14:05;20.83;;;7.75;;
33926;SDS011;20485;50.992;5.550;2023-02-28T07:16:32;14.20;;;7.65;;
33926;SDS011;20485;50.992;5.550;2023-02-28T07:18:58;19.00;;;8.50;;
33926;SDS011;20485;50.992;5.550;2023-02-28T07:21:23;15.80;;;7.80;;
33926;SDS011;20485;50.992;5.550;2023-02-28T07:23:49;17.83;;;7.57;;
33926;SDS011;20485;50.992;5.550;2023-02-28T07:26:17;17.25;;;7.50;;
33926;SDS011;20485;50.992;5.550;2023-02-28T07:28:44;14.30;;;8.00;;
33926;SDS011;20485;50.992;5.550;2023-02-28T07:31:12;11.85;;;7.53;;
33926;SDS011;20485;50.992;5.550;2023-02-28T07:33:40;23.63;;;10.02;;
33926;SDS011;20485;50.992;5.550;2023-02-28T07:36:07;18.88;;;8.15;;
33926;SDS011;20485;50.992;5.550;2023-02-28T07:38:37;16.13;;;6.60;;
33926;SDS011;20485;50.992;5.550;2023-02-28T07:41:02;14.05;;;7.22;;
33926;SDS011;20485;50.992;5.550;2023-02-28T07:43:31;14.27;;;7.30;;
33926;SDS011;20485;50.992;5.550;2023-02-28T07:46:07;12.90;;;6.18;;
33926;SDS011;20485;50.992;5.550;2023-02-28T07:48:34;14.35;;;6.65;;
33926;SDS011;20485;50.992;5.550;2023-02-28T07:51:00;13.55;;;6.68;;
33926;SDS011;20485;50.992;5.550;2023-02-28T07:53:27;10.50;;;6.35;;
33926;SDS011;20485;50.992;5.550;2023-02-28T07:55:57;9.13;;;5.43;;
33926;SDS011;20485;50.992;5.550;2023-02-28T07:58:24;14.20;;;6.28;;
33926;SDS011;20485;50.992;5.550;2023-02-28T08:00:50;16.13;;;6.05;;
33926;SDS011;20485;50.992;5.550;2023-02-28T08:03:20;11.35;;;5.60;;
33926;SDS011;20485;50.992;5.550;2023-02-28T08:05:47;12.63;;;5.30;;
33926;SDS011;20485;50.992;5.550;2023-02-28T08:08:13;13.90;;;5.35;;
33926;SDS011;20485;50.992;5.550;2023-02-28T08:10:40;8.88;;;4.78;;
33926;SDS011;20485;50.992;5.550;2023-02-28T08:13:06;12.50;;;5.47;;
33926;SDS011;20485;50.992;5.550;2023-02-28T08:15:32;9.85;;;5.20;;
33926;SDS011;20485;50.992;5.550;2023-02-28T08:17:58;14.63;;;5.22;;
33926;SDS011;20485;50.992;5.550;2023-02-28T08:20:24;9.05;;;5.47;;
33926;SDS011;20485;50.992;5.550;2023-02-28T08:22:50;9.32;;;5.43;;
33926;SDS011;20485;50.992;5.550;2023-02-28T08:25:16;7.63;;;4.95;;
33926;SDS011;20485;50.992;5.550;2023-02-28T08:27:42;10.57;;;5.18;;
33926;SDS011;20485;50.992;5.550;2023-02-28T08:30:09;8.98;;;5.45;;
33926;SDS011;20485;50.992;5.550;2023-02-28T08:32:36;9.68;;;4.47;;
33926;SDS011;20485;50.992;5.550;2023-02-28T08:35:02;6.03;;;3.85;;
33926;SDS011;20485;50.992;5.550;2023-02-28T08:37:28;8.43;;;4.18;;
33926;SDS011;20485;50.992;5.550;2023-02-28T08:39:54;7.97;;;4.35;;
33926;SDS011;20485;50.992;5.550;2023-02-28T08:42:20;6.22;;;3.65;;
33926;SDS011;20485;50.992;5.550;2023-02-28T08:44:45;8.85;;;3.63;;
33926;SDS011;20485;50.992;5.550;2023-02-28T08:47:11;10.10;;;3.35;;
33926;SDS011;20485;50.992;5.550;2023-02-28T08:49:37;8.27;;;3.72;;
33926;SDS011;20485;50.992;5.550;2023-02-28T08:52:03;6.22;;;2.85;;
33926;SDS011;20485;50.992;5.550;2023-02-28T08:54:28;10.13;;;3.13;;
33926;SDS011;20485;50.992;5.550;2023-02-28T08:56:56;8.43;;;3.15;;
33926;SDS011;20485;50.992;5.550;2023-02-28T08:59:22;8.63;;;3.70;;
33926;SDS011;20485;50.992;5.550;2023-02-28T09:01:47;6.10;;;2.78;;
33926;SDS011;20485;50.992;5.550;2023-02-28T09:04:13;4.40;;;2.00;;
33926;SDS011;20485;50.992;5.550;2023-02-28T09:06:39;5.57;;;2.33;;
33926;SDS011;20485;50.992;5.550;2023-02-28T09:09:05;4.15;;;2.17;;
33926;SDS011;20485;50.992;5.550;2023-02-28T09:11:32;3.05;;;2.45;;
33926;SDS011;20485;50.992;5.550;2023-02-28T09:14:00;3.45;;;2.35;;
33926;SDS011;20485;50.992;5.550;2023-02-28T09:16:28;6.95;;;2.10;;
33926;SDS011;20485;50.992;5.550;2023-02-28T09:18:55;9.15;;;2.70;;
33926;SDS011;20485;50.992;5.550;2023-02-28T09:21:22;4.22;;;2.42;;
33926;SDS011;20485;50.992;5.550;2023-02-28T09:23:49;5.03;;;2.55;;
33926;SDS011;20485;50.992;5.550;2023-02-28T09:28:51;5.38;;;2.47;;
33926;SDS011;20485;50.992;5.550;2023-02-28T09:31:19;7.00;;;5.18;;
33926;SDS011;20485;50.992;5.550;2023-02-28T09:33:47;1.75;;;1.25;;
33926;SDS011;20485;50.992;5.550;2023-02-28T09:36:14;7.85;;;2.30;;
33926;SDS011;20485;50.992;5.550;2023-02-28T09:38:39;6.75;;;2.10;;
33926;SDS011;20485;50.992;5.550;2023-02-28T09:41:15;4.65;;;2.33;;
33926;SDS011;20485;50.992;5.550;2023-02-28T09:44:06;5.95;;;2.33;;
33926;SDS011;20485;50.992;5.550;2023-02-28T09:46:34;5.03;;;2.15;;
33926;SDS011;20485;50.992;5.550;2023-02-28T09:49:15;5.82;;;1.88;;
33926;SDS011;20485;50.992;5.550;2023-02-28T09:51:55;2.47;;;1.80;;
33926;SDS011;20485;50.992;5.550;2023-02-28T09:54:22;4.57;;;2.17;;
33926;SDS011;20485;50.992;5.550;2023-02-28T09:56:50;3.63;;;2.30;;
33926;SDS011;20485;50.992;5.550;2023-02-28T09:59:48;4.15;;;2.00;;
33926;SDS011;20485;50.992;5.550;2023-02-28T10:10:40;5.93;;;1.52;;
33926;SDS011;20485;50.992;5.550;2023-02-28T10:13:25;2.85;;;1.83;;
33926;SDS011;20485;50.992;5.550;2023-02-28T10:15:59;3.28;;;1.73;;
33926;SDS011;20485;50.992;5.550;2023-02-28T10:18:43;2.95;;;1.75;;
33926;SDS011;20485;50.992;5.550;2023-02-28T10:24:26;3.38;;;1.85;;
33926;SDS011;20485;50.992;5.550;2023-02-28T10:27:01;2.33;;;1.58;;
33926;SDS011;20485;50.992;5.550;2023-02-28T10:29:44;2.60;;;1.63;;
33926;SDS011;20485;50.992;5.550;2023-02-28T10:32:16;4.60;;;1.85;;
33926;SDS011;20485;50.992;5.550;2023-02-28T10:34:44;3.50;;;1.42;;
33926;SDS011;20485;50.992;5.550;2023-02-28T10:37:11;4.10;;;1.63;;
33926;SDS011;20485;50.992;5.550;2023-02-28T10:39:43;2.42;;;1.50;;
33926;SDS011;20485;50.992;5.550;2023-02-28T10:45:05;5.78;;;2.00;;
33926;SDS011;20485;50.992;5.550;2023-02-28T10:47:31;6.40;;;1.70;;
33926;SDS011;20485;50.992;5.550;2023-02-28T10:49:59;5.03;;;2.13;;
33926;SDS011;20485;50.992;5.550;2023-02-28T10:52:33;2.90;;;1.77;;
33926;SDS011;20485;50.992;5.550;2023-02-28T10:58:00;2.25;;;1.42;;
33926;SDS011;20485;50.992;5.550;2023-02-28T11:00:31;6.35;;;1.75;;
33926;SDS011;20485;50.992;5.550;2023-02-28T11:02:59;4.85;;;1.67;;
33926;SDS011;20485;50.992;5.550;2023-02-28T11:05:32;6.20;;;1.63;;
33926;SDS011;20485;50.992;5.550;2023-02-28T11:08:17;3.40;;;1.45;;
33926;SDS011;20485;50.992;5.550;2023-02-28T11:10:47;1.92;;;1.55;;
33926;SDS011;20485;50.992;5.550;2023-02-28T11:13:21;1.35;;;1.25;;
33926;SDS011;20485;50.992;5.550;2023-02-28T11:15:55;2.78;;;1.40;;
33926;SDS011;20485;50.992;5.550;2023-02-28T11:20:54;2.55;;;1.60;;
33926;SDS011;20485;50.992;5.550;2023-02-28T11:23:23;6.50;;;1.73;;
33926;SDS011;20485;50.992;5.550;2023-02-28T11:25:52;5.18;;;1.70;;
33926;SDS011;20485;50.992;5.550;2023-02-28T11:28:40;3.45;;;1.48;;
33926;SDS011;20485;50.992;5.550;2023-02-28T11:33:48;4.85;;;2.30;;
33926;SDS011;20485;50.992;5.550;2023-02-28T11:38:53;3.08;;;1.33;;
33926;SDS011;20485;50.992;5.550;2023-02-28T11:41:47;8.07;;;2.13;;
33926;SDS011;20485;50.992;5.550;2023-02-28T11:52:52;2.10;;;1.50;;
33926;SDS011;20485;50.992;5.550;2023-02-28T12:05:34;3.72;;;1.98;;
33926;SDS011;20485;50.992;5.550;2023-02-28T12:08:26;6.00;;;1.75;;
33926;SDS011;20485;50.992;5.550;2023-02-28T12:14:05;4.00;;;2.33;;
33926;SDS011;20485;50.992;5.550;2023-02-28T12:19:48;5.57;;;2.40;;
33926;SDS011;20485;50.992;5.550;2023-02-28T12:22:29;8.80;;;3.20;;
33926;SDS011;20485;50.992;5.550;2023-02-28T12:25:19;6.03;;;3.15;;
33926;SDS011;20485;50.992;5.550;2023-02-28T12:27:51;2.80;;;1.85;;
33926;SDS011;20485;50.992;5.550;2023-02-28T12:33:17;3.05;;;1.70;;
33926;SDS011;20485;50.992;5.550;2023-02-28T12:35:49;3.30;;;1.75;;
33926;SDS011;20485;50.992;5.550;2023-02-28T12:38:27;3.83;;;1.80;;
33926;SDS011;20485;50.992;5.550;2023-02-28T12:41:03;5.32;;;2.03;;
33926;SDS011;20485;50.992;5.550;2023-02-28T12:43:37;3.72;;;2.00;;
33926;SDS011;20485;50.992;5.550;2023-02-28T12:46:09;4.38;;;2.15;;
33926;SDS011;20485;50.992;5.550;2023-02-28T12:48:43;6.45;;;2.20;;
33926;SDS011;20485;50.992;5.550;2023-02-28T12:51:13;3.20;;;1.80;;
33926;SDS011;20485;50.992;5.550;2023-02-28T13:00:16;5.10;;;2.33;;
33926;SDS011;20485;50.992;5.550;2023-02-28T13:02:49;4.72;;;2.20;;
33926;SDS011;20485;50.992;5.550;2023-02-28T13:05:29;3.53;;;2.13;;
33926;SDS011;20485;50.992;5.550;2023-02-28T13:10:45;4.10;;;2.03;;
33926;SDS011;20485;50.992;5.550;2023-02-28T13:13:18;4.50;;;1.98;;
33926;SDS011;20485;50.992;5.550;2023-02-28T13:16:06;4.88;;;2.25;;
33926;SDS011;20485;50.992;5.550;2023-02-28T13:18:37;12.10;;;2.03;;
33926;SDS011;20485;50.992;5.550;2023-02-28T13:21:05;3.25;;;1.92;;
33926;SDS011;20485;50.992;5.550;2023-02-28T13:26:17;3.78;;;1.98;;
33926;SDS011;20485;50.992;5.550;2023-02-28T13:31:29;3.50;;;2.00;;
33926;SDS011;20485;50.992;5.550;2023-02-28T13:36:28;4.40;;;1.80;;
33926;SDS011;20485;50.992;5.550;2023-02-28T13:38:58;5.60;;;1.98;;
33926;SDS011;20485;50.992;5.550;2023-02-28T13:46:38;4.38;;;2.00;;
33926;SDS011;20485;50.992;5.550;2023-02-28T13:54:38;3.95;;;2.38;;
33926;SDS011;20485;50.992;5.550;2023-02-28T14:07:56;3.28;;;2.13;;
33926;SDS011;20485;50.992;5.550;2023-02-28T14:16:23;7.95;;;2.08;;
33926;SDS011;20485;50.992;5.550;2023-02-28T14:18:56;3.45;;;1.88;;
33926;SDS011;20485;50.992;5.550;2023-02-28T14:21:31;4.10;;;1.48;;
33926;SDS011;20485;50.992;5.550;2023-02-28T14:32:47;4.55;;;2.00;;
33926;SDS011;20485;50.992;5.550;2023-02-28T14:37:50;3.85;;;2.08;;
33926;SDS011;20485;50.992;5.550;2023-02-28T14:40:20;4.40;;;2.15;;
33926;SDS011;20485;50.992;5.550;2023-02-28T14:43:01;5.75;;;2.25;;
33926;SDS011;20485;50.992;5.550;2023-02-28T14:45:43;3.17;;;1.90;;
33926;SDS011;20485;50.992;5.550;2023-02-28T14:48:15;7.13;;;2.38;;
33926;SDS011;20485;50.992;5.550;2023-02-28T14:50:42;2.03;;;1.70;;
33926;SDS011;20485;50.992;5.550;2023-02-28T14:53:21;5.30;;;2.78;;
33926;SDS011;20485;50.992;5.550;2023-02-28T14:55:48;6.70;;;2.60;;
33926;SDS011;20485;50.992;5.550;2023-02-28T14:58:27;3.70;;;1.90;;
33926;SDS011;20485;50.992;5.550;2023-02-28T15:00:55;8.13;;;2.22;;
33926;SDS011;20485;50.992;5.550;2023-02-28T15:03:24;2.75;;;2.00;;
33926;SDS011;20485;50.992;5.550;2023-02-28T15:05:58;5.80;;;3.05;;
33926;SDS011;20485;50.992;5.550;2023-02-28T15:08:28;4.57;;;2.20;;
33926;SDS011;20485;50.992;5.550;2023-02-28T15:11:00;4.43;;;2.40;;
33926;SDS011;20485;50.992;5.550;2023-02-28T15:21:22;4.82;;;2.20;;
33926;SDS011;20485;50.992;5.550;2023-02-28T15:24:13;4.65;;;2.20;;
33926;SDS011;20485;50.992;5.550;2023-02-28T15:26:46;5.72;;;2.20;;
33926;SDS011;20485;50.992;5.550;2023-02-28T15:29:14;2.85;;;2.00;;
33926;SDS011;20485;50.992;5.550;2023-02-28T15:31:58;3.67;;;2.40;;
33926;SDS011;20485;50.992;5.550;2023-02-28T15:37:06;5.82;;;2.38;;
33926;SDS011;20485;50.992;5.550;2023-02-28T15:39:50;8.23;;;2.55;;
33926;SDS011;20485;50.992;5.550;2023-02-28T15:42:18;4.22;;;2.90;;
33926;SDS011;20485;50.992;5.550;2023-02-28T15:44:45;3.20;;;2.25;;
33926;SDS011;20485;50.992;5.550;2023-02-28T15:49:51;3.22;;;2.05;;
33926;SDS011;20485;50.992;5.550;2023-02-28T15:52:40;3.75;;;2.00;;
33926;SDS011;20485;50.992;5.550;2023-02-28T15:55:09;7.05;;;2.60;;
33926;SDS011;20485;50.992;5.550;2023-02-28T15:57:42;6.53;;;2.90;;
33926;SDS011;20485;50.992;5.550;2023-02-28T16:00:12;5.63;;;2.97;;
33926;SDS011;20485;50.992;5.550;2023-02-28T16:02:40;5.15;;;2.55;;
33926;SDS011;20485;50.992;5.550;2023-02-28T16:07:35;7.28;;;2.78;;
33926;SDS011;20485;50.992;5.550;2023-02-28T16:10:03;3.45;;;2.20;;
33926;SDS011;20485;50.992;5.550;2023-02-28T16:12:31;4.20;;;2.75;;
33926;SDS011;20485;50.992;5.550;2023-02-28T16:15:00;5.32;;;2.53;;
33926;SDS011;20485;50.992;5.550;2023-02-28T16:17:31;4.68;;;2.30;;
33926;SDS011;20485;50.992;5.550;2023-02-28T16:19:59;4.47;;;2.15;;
33926;SDS011;20485;50.992;5.550;2023-02-28T16:22:25;3.97;;;2.08;;
33926;SDS011;20485;50.992;5.550;2023-02-28T16:24:51;7.95;;;2.70;;
33926;SDS011;20485;50.992;5.550;2023-02-28T16:27:21;4.88;;;2.50;;
33926;SDS011;20485;50.992;5.550;2023-02-28T16:29:55;6.15;;;2.83;;
33926;SDS011;20485;50.992;5.550;2023-02-28T16:32:20;5.35;;;2.80;;
33926;SDS011;20485;50.992;5.550;2023-02-28T16:34:46;3.83;;;2.20;;
33926;SDS011;20485;50.992;5.550;2023-02-28T16:37:13;6.10;;;2.80;;
33926;SDS011;20485;50.992;5.550;2023-02-28T16:39:41;7.43;;;2.60;;
33926;SDS011;20485;50.992;5.550;2023-02-28T16:42:14;6.25;;;3.20;;
33926;SDS011;20485;50.992;5.550;2023-02-28T16:44:45;4.90;;;2.70;;
33926;SDS011;20485;50.992;5.550;2023-02-28T16:47:11;3.00;;;2.25;;
33926;SDS011;20485;50.992;5.550;2023-02-28T16:49:37;4.55;;;2.42;;
33926;SDS011;20485;50.992;5.550;2023-02-28T16:52:03;5.53;;;2.50;;
33926;SDS011;20485;50.992;5.550;2023-02-28T16:54:29;7.18;;;3.08;;
33926;SDS011;20485;50.992;5.550;2023-02-28T16:56:55;5.20;;;2.58;;
33926;SDS011;20485;50.992;5.550;2023-02-28T16:59:24;6.38;;;2.97;;
33926;SDS011;20485;50.992;5.550;2023-02-28T17:01:52;11.50;;;4.15;;
33926;SDS011;20485;50.992;5.550;2023-02-28T17:04:18;9.57;;;4.18;;
33926;SDS011;20485;50.992;5.550;2023-02-28T17:06:44;10.23;;;3.70;;
33926;SDS011;20485;50.992;5.550;2023-02-28T17:09:16;9.43;;;4.00;;
33926;SDS011;20485;50.992;5.550;2023-02-28T17:11:43;6.43;;;3.10;;
33926;SDS011;20485;50.992;5.550;2023-02-28T17:14:09;11.32;;;3.85;;
33926;SDS011;20485;50.992;5.550;2023-02-28T17:16:35;7.43;;;2.78;;
33926;SDS011;20485;50.992;5.550;2023-02-28T17:19:05;4.45;;;2.70;;
33926;SDS011;20485;50.992;5.550;2023-02-28T17:21:36;15.85;;;8.85;;
33926;SDS011;20485;50.992;5.550;2023-02-28T17:24:02;9.13;;;5.32;;
33926;SDS011;20485;50.992;5.550;2023-02-28T17:26:28;9.38;;;3.90;;
33926;SDS011;20485;50.992;5.550;2023-02-28T17:28:54;6.35;;;3.50;;
33926;SDS011;20485;50.992;5.550;2023-02-28T17:31:22;6.60;;;2.80;;
33926;SDS011;20485;50.992;5.550;2023-02-28T17:33:48;4.38;;;2.75;;
33926;SDS011;20485;50.992;5.550;2023-02-28T17:36:15;11.35;;;3.08;;
33926;SDS011;20485;50.992;5.550;2023-02-28T17:38:46;6.50;;;2.70;;
33926;SDS011;20485;50.992;5.550;2023-02-28T17:41:12;7.78;;;2.65;;
33926;SDS011;20485;50.992;5.550;2023-02-28T17:43:38;7.85;;;2.85;;
33926;SDS011;20485;50.992;5.550;2023-02-28T17:46:05;8.65;;;3.00;;
33926;SDS011;20485;50.992;5.550;2023-02-28T17:48:33;8.88;;;3.38;;
33926;SDS011;20485;50.992;5.550;2023-02-28T17:51:00;6.93;;;3.40;;